Time;durP1;ratioP1;P1;durP2;ratioP2;P2;SDS_P1;SDS_P2;PMS_P1;PMS_P2;Temp;Humidity;BMP_temperature;BMP_pressure;BME280_temperature;BME280_humidity;BME280_pressure;Samples;Min_cycle;Max_cycle;Signal;HPM_P1;HPM_P2
2021/12/04 00:00:02;;;;;;;5.67;3.20;;;2.00;62.90;;;;;;4967039;28;20030;-80
2021/12/04 00:02:28;;;;;;;9.67;4.83;;;2.10;62.80;;;;;;4986022;28;20074;-80
2021/12/04 00:04:55;;;;;;;7.93;5.30;;;2.10;62.90;;;;;;4960636;28;20026;-80
2021/12/04 00:07:22;;;;;;;10.03;5.23;;;2.10;62.90;;;;;;4966014;28;20556;-80
2021/12/04 00:09:50;;;;;;;10.17;5.40;;;2.10;62.90;;;;;;4988045;28;20023;-80
2021/12/04 00:12:17;;;;;;;9.50;5.23;;;2.00;63.00;;;;;;4972059;28;20033;-80
2021/12/04 00:14:45;;;;;;;7.50;4.30;;;2.10;63.20;;;;;;4967920;28;20026;-80
2021/12/04 00:17:10;;;;;;;10.20;4.83;;;2.10;63.30;;;;;;4978480;28;20025;-80
2021/12/04 00:19:38;;;;;;;10.00;4.90;;;2.10;63.30;;;;;;4967603;28;20023;-80
2021/12/04 00:22:04;;;;;;;8.53;5.00;;;2.10;63.20;;;;;;4978537;28;20038;-80
2021/12/04 00:24:30;;;;;;;10.37;4.77;;;2.10;63.30;;;;;;4958449;28;20030;-80
2021/12/04 00:26:57;;;;;;;11.10;5.77;;;2.20;63.30;;;;;;4968820;28;20374;-80
2021/12/04 00:29:23;;;;;;;10.63;6.20;;;2.20;63.20;;;;;;4990180;28;20023;-80
2021/12/04 00:31:54;;;;;;;14.13;7.27;;;2.20;63.90;;;;;;4972737;28;20038;-80
2021/12/04 00:34:25;;;;;;;12.67;7.17;;;2.20;63.40;;;;;;4967856;28;20029;-79
2021/12/04 00:50:27;;;;;;;12.23;7.00;;;2.10;63.90;;;;;;4949410;28;20127;-80
2021/12/04 00:52:55;;;;;;;10.57;6.50;;;2.20;64.10;;;;;;4975794;28;20030;-80
2021/12/04 00:55:20;;;;;;;9.60;6.67;;;2.20;64.10;;;;;;4991355;28;20039;-80
2021/12/04 00:57:46;;;;;;;14.17;7.60;;;2.10;64.10;;;;;;4971803;28;20030;-80
2021/12/04 01:00:13;;;;;;;11.57;6.93;;;2.10;64.20;;;;;;4974301;28;20038;-80
2021/12/04 01:02:38;;;;;;;11.77;7.00;;;2.10;64.20;;;;;;4978491;28;20022;-81
2021/12/04 01:05:05;;;;;;;10.57;6.53;;;2.10;64.30;;;;;;4978557;28;20045;-80
2021/12/04 01:07:30;;;;;;;11.57;6.37;;;2.10;64.30;;;;;;4977001;28;20382;-80
2021/12/04 01:09:56;;;;;;;10.93;6.03;;;2.10;64.30;;;;;;4971289;28;20040;-80
2021/12/04 01:12:22;;;;;;;11.73;6.33;;;2.10;64.40;;;;;;4969147;28;20046;-80
2021/12/04 01:14:48;;;;;;;9.53;6.40;;;2.10;64.20;;;;;;4993013;28;20027;-80
2021/12/04 01:17:13;;;;;;;9.70;5.77;;;2.10;64.20;;;;;;4989895;28;20054;-80
2021/12/04 01:19:39;;;;;;;13.07;5.67;;;2.10;64.30;;;;;;5009027;28;20026;-80
2021/12/04 01:22:06;;;;;;;9.37;6.03;;;2.10;64.30;;;;;;5008806;28;20037;-80
2021/12/04 01:24:32;;;;;;;12.30;6.33;;;2.10;64.40;;;;;;5012167;28;20448;-80
2021/12/04 01:26:58;;;;;;;10.90;6.70;;;2.10;64.40;;;;;;4979818;28;20049;-80
2021/12/04 01:29:24;;;;;;;12.57;6.77;;;2.10;64.50;;;;;;4980384;28;20061;-79
2021/12/04 01:31:50;;;;;;;11.13;6.93;;;2.00;64.50;;;;;;4985509;28;20034;-80
2021/12/04 01:34:16;;;;;;;11.13;6.47;;;2.10;64.70;;;;;;4978649;28;20022;-80
2021/12/04 01:36:42;;;;;;;12.30;6.57;;;2.10;64.70;;;;;;4999290;28;20076;-80
2021/12/04 01:39:08;;;;;;;9.23;6.30;;;2.00;64.70;;;;;;4989519;28;20433;-80
2021/12/04 01:41:35;;;;;;;12.33;6.43;;;2.10;64.70;;;;;;4985353;28;20019;-80
2021/12/04 01:44:02;;;;;;;11.63;6.70;;;2.00;64.80;;;;;;4987319;28;20031;-80
2021/12/04 01:46:29;;;;;;;11.53;6.20;;;2.00;64.80;;;;;;4984014;28;20037;-80
2021/12/04 01:48:55;;;;;;;12.43;6.47;;;2.00;64.80;;;;;;4983507;28;20035;-80
2021/12/04 01:51:21;;;;;;;11.43;6.50;;;2.10;64.70;;;;;;4975950;28;20051;-80
2021/12/04 01:53:47;;;;;;;10.70;5.83;;;2.10;64.60;;;;;;4972971;28;20035;-79
2021/12/04 01:56:13;;;;;;;10.23;6.17;;;2.10;64.80;;;;;;4980076;28;20026;-80
2021/12/04 01:58:41;;;;;;;10.43;6.13;;;2.10;64.80;;;;;;4967061;28;20037;-80
2021/12/04 02:01:08;;;;;;;8.87;6.03;;;2.10;64.80;;;;;;4996816;28;20042;-80
2021/12/04 02:03:34;;;;;;;10.00;6.23;;;2.10;64.90;;;;;;4993719;28;20034;-80
2021/12/04 02:06:00;;;;;;;11.03;5.00;;;2.10;65.10;;;;;;4969726;28;20516;-80
2021/12/04 02:08:25;;;;;;;13.13;6.00;;;2.00;64.80;;;;;;4961399;28;20026;-80
2021/12/04 02:10:54;;;;;;;8.60;5.23;;;2.00;65.10;;;;;;4982739;28;20492;-80
2021/12/04 02:13:20;;;;;;;9.00;5.10;;;2.10;65.00;;;;;;4992481;28;20027;-80
2021/12/04 02:15:47;;;;;;;9.37;4.93;;;2.20;64.90;;;;;;4974830;28;20109;-80
2021/12/04 02:18:15;;;;;;;9.67;5.20;;;2.20;64.80;;;;;;4980568;28;20569;-80
2021/12/04 02:20:41;;;;;;;8.97;4.80;;;2.20;64.90;;;;;;4983635;28;20034;-80
2021/12/04 02:23:09;;;;;;;9.47;5.40;;;2.10;64.80;;;;;;4972499;28;20500;-80
2021/12/04 02:25:35;;;;;;;8.03;4.87;;;2.20;64.90;;;;;;4972506;28;20113;-80
2021/12/04 02:28:02;;;;;;;7.67;4.93;;;2.20;64.80;;;;;;4992479;28;20022;-80
2021/12/04 02:30:32;;;;;;;5.80;2.83;;;2.10;64.80;;;;;;5001917;28;20030;-80
2021/12/04 02:32:59;;;;;;;5.00;2.10;;;2.10;65.00;;;;;;5003586;28;20026;-80
2021/12/04 02:35:25;;;;;;;6.63;3.73;;;2.20;64.40;;;;;;4981465;28;20018;-80
2021/12/04 02:37:52;;;;;;;8.83;4.83;;;2.20;64.10;;;;;;5004645;28;20094;-80
2021/12/04 02:40:21;;;;;;;9.80;5.50;;;2.20;64.00;;;;;;4992441;28;20105;-80
2021/12/04 02:42:47;;;;;;;10.57;6.27;;;2.20;64.10;;;;;;4977237;28;20026;-80
2021/12/04 02:45:14;;;;;;;7.67;5.27;;;2.10;64.10;;;;;;4986230;28;20421;-80
2021/12/04 02:47:40;;;;;;;9.77;5.60;;;2.20;64.40;;;;;;4965062;28;20118;-80
2021/12/04 02:50:08;;;;;;;9.27;5.67;;;2.20;64.30;;;;;;4964830;28;20061;-80
2021/12/04 02:52:34;;;;;;;11.30;5.83;;;2.30;64.30;;;;;;4966838;28;20426;-80
2021/12/04 02:55:01;;;;;;;9.30;5.27;;;2.30;64.30;;;;;;4995169;28;20047;-80
2021/12/04 02:57:28;;;;;;;10.70;5.93;;;2.30;64.30;;;;;;4980532;28;20025;-80
2021/12/04 02:59:54;;;;;;;10.30;5.27;;;2.30;64.30;;;;;;4996333;28;20379;-80
2021/12/04 03:02:21;;;;;;;10.23;5.70;;;2.30;64.40;;;;;;4978892;28;20065;-80
2021/12/04 03:04:50;;;;;;;12.57;5.80;;;2.30;64.50;;;;;;4965854;28;20023;-80
2021/12/04 03:07:17;;;;;;;8.60;5.53;;;2.30;64.50;;;;;;4972376;28;20470;-80
2021/12/04 03:09:43;;;;;;;10.87;5.20;;;2.30;64.50;;;;;;4971169;28;20027;-80
2021/12/04 03:12:10;;;;;;;8.50;5.27;;;2.30;64.50;;;;;;4961705;28;20022;-80
2021/12/04 03:14:36;;;;;;;9.80;5.73;;;2.30;64.70;;;;;;4965196;28;20026;-80
2021/12/04 03:17:03;;;;;;;10.40;5.90;;;2.30;64.70;;;;;;4968231;28;20594;-80
2021/12/04 03:19:29;;;;;;;15.97;5.67;;;2.30;64.80;;;;;;4964284;28;20039;-80
2021/12/04 03:21:55;;;;;;;10.53;5.70;;;2.20;64.80;;;;;;4971634;28;20084;-80
2021/12/04 03:24:22;;;;;;;7.90;4.70;;;2.20;65.00;;;;;;4991011;28;20026;-80
2021/12/04 03:26:50;;;;;;;11.33;5.70;;;2.30;65.00;;;;;;4965852;28;20034;-80
2021/12/04 03:29:19;;;;;;;10.53;6.20;;;2.30;65.00;;;;;;4985238;28;20469;-80
2021/12/04 03:42:39;;;;;;;10.30;5.63;;;2.40;64.70;;;;;;4992582;28;20033;-80
2021/12/04 03:45:07;;;;;;;8.63;5.30;;;2.40;64.70;;;;;;4982342;28;20470;-80
2021/12/04 03:47:33;;;;;;;9.60;5.80;;;2.40;64.80;;;;;;4981584;28;20015;-80
2021/12/04 03:49:59;;;;;;;8.27;5.33;;;2.40;64.80;;;;;;4963965;28;20935;-80
2021/12/04 03:52:25;;;;;;;9.10;4.83;;;2.40;64.90;;;;;;4961947;28;20018;-80
2021/12/04 03:54:50;;;;;;;7.80;4.57;;;2.40;65.00;;;;;;4970419;28;20072;-80
2021/12/04 03:57:16;;;;;;;8.63;4.53;;;2.50;64.90;;;;;;5001501;28;20026;-80
2021/12/04 03:59:46;;;;;;;8.77;4.60;;;2.50;64.70;;;;;;4992518;28;20437;-80
2021/12/04 04:02:16;;;;;;;9.23;5.33;;;2.50;64.70;;;;;;4966792;28;20035;-80
2021/12/04 04:04:42;;;;;;;8.77;4.80;;;2.50;64.70;;;;;;4984291;28;20034;-80
2021/12/04 04:07:08;;;;;;;7.73;4.70;;;2.50;64.70;;;;;;5001704;28;20038;-80
2021/12/04 04:09:34;;;;;;;8.80;4.90;;;2.50;64.50;;;;;;4978633;28;20101;-80
2021/12/04 04:12:00;;;;;;;8.13;4.97;;;2.50;64.50;;;;;;4974301;28;20473;-80
2021/12/04 04:14:27;;;;;;;9.20;5.47;;;2.50;64.50;;;;;;4985548;28;20119;-80
2021/12/04 04:16:54;;;;;;;8.70;4.07;;;2.50;64.60;;;;;;4985349;28;20030;-81
2021/12/04 04:19:21;;;;;;;8.63;5.17;;;2.60;64.50;;;;;;4979794;28;20019;-80
2021/12/04 04:21:47;;;;;;;7.47;5.23;;;2.60;64.30;;;;;;4982499;28;20425;-80
2021/12/04 04:24:17;;;;;;;10.03;5.40;;;2.60;64.40;;;;;;4959697;28;20104;-81
2021/12/04 04:26:44;;;;;;;8.97;4.17;;;2.60;64.40;;;;;;4976649;28;20106;-80
2021/12/04 04:29:10;;;;;;;6.43;3.20;;;2.60;64.50;;;;;;4981988;28;20523;-80
2021/12/04 04:31:45;;;;;;;4.17;1.83;;;2.70;64.50;;;;;;4992383;28;20072;-80
2021/12/04 04:34:12;;;;;;;6.37;2.27;;;2.80;64.80;;;;;;4984955;28;20795;-80
2021/12/04 04:58:46;;;;;;;5.53;2.17;;;3.10;63.00;;;;;;4982286;28;20057;-80
2021/12/04 05:14:36;;;;;;;5.87;3.33;;;3.00;63.00;;;;;;4992287;28;20658;-80
2021/12/04 05:17:06;;;;;;;5.63;2.80;;;3.00;62.70;;;;;;4970906;28;20023;-80
2021/12/04 05:19:42;;;;;;;6.73;3.10;;;3.10;62.70;;;;;;4965164;28;20035;-80
2021/12/04 05:22:10;;;;;;;7.43;2.50;;;3.10;62.50;;;;;;4983838;28;20073;-80
2021/12/04 05:24:36;;;;;;;11.27;2.93;;;3.10;62.30;;;;;;4985265;28;20116;-80
2021/12/04 05:27:02;;;;;;;4.77;2.20;;;3.00;62.30;;;;;;4979687;28;20069;-80
2021/12/04 05:29:28;;;;;;;9.87;3.10;;;3.00;62.40;;;;;;4976396;28;20445;-81
2021/12/04 05:31:54;;;;;;;18.57;3.70;;;3.10;62.30;;;;;;4985317;28;20101;-80
2021/12/04 05:34:20;;;;;;;14.90;6.83;;;3.10;62.30;;;;;;4972487;28;20512;-80
2021/12/04 05:36:45;;;;;;;20.53;9.07;;;3.10;62.50;;;;;;4981732;28;20026;-80
2021/12/04 05:39:12;;;;;;;19.40;8.77;;;3.10;62.70;;;;;;4970308;28;20029;-80
2021/12/04 05:41:38;;;;;;;21.10;9.07;;;3.10;62.90;;;;;;4986223;28;20026;-80
2021/12/04 05:44:06;;;;;;;11.43;6.57;;;3.10;63.00;;;;;;4983292;28;20089;-80
2021/12/04 05:46:38;;;;;;;12.93;7.07;;;3.10;63.10;;;;;;4986796;28;20027;-80
2021/12/04 05:49:19;;;;;;;12.45;6.13;;;3.10;63.20;;;;;;4982203;28;20026;-80
2021/12/04 05:55:22;;;;;;;15.40;8.10;;;3.10;63.30;;;;;;4984134;28;20043;-80
2021/12/04 05:57:15;;;;;;;17.80;9.80;;;3.10;63.30;;;;;;4978750;28;20172;-80
2021/12/04 05:59:41;;;;;;;19.53;9.77;;;3.20;63.30;;;;;;4988464;28;20101;-80
2021/12/04 06:02:07;;;;;;;21.73;11.00;;;3.10;63.40;;;;;;4983528;28;20038;-80
2021/12/04 06:04:32;;;;;;;15.97;8.07;;;3.10;63.70;;;;;;4977066;28;20022;-80
2021/12/04 06:06:58;;;;;;;15.13;6.43;;;3.20;63.90;;;;;;4972350;28;20077;-80
2021/12/04 06:09:24;;;;;;;12.03;6.17;;;3.20;63.60;;;;;;4987606;28;20058;-80
2021/12/04 06:11:49;;;;;;;11.10;4.70;;;3.20;63.40;;;;;;4992135;28;20033;-80
2021/12/04 06:14:15;;;;;;;9.57;4.40;;;3.20;63.30;;;;;;4967468;28;20026;-80
2021/12/04 06:16:41;;;;;;;15.50;8.40;;;3.30;63.20;;;;;;4967845;28;20492;-80
2021/12/04 06:19:25;;;;;;;18.47;8.97;;;3.30;63.20;;;;;;4986774;28;20505;-80
2021/12/04 06:24:35;;;;;;;8.30;5.70;;;3.30;63.30;;;;;;4991960;28;20040;-81
2021/12/04 06:27:02;;;;;;;8.67;5.03;;;3.30;63.30;;;;;;4961844;28;20674;-80
2021/12/04 06:29:27;;;;;;;6.53;4.77;;;3.30;63.30;;;;;;4966049;28;20529;-80
2021/12/04 06:31:53;;;;;;;7.17;4.53;;;3.30;63.30;;;;;;4974362;28;20031;-80
2021/12/04 06:34:19;;;;;;;11.53;4.70;;;3.20;63.40;;;;;;4985265;28;20038;-80
2021/12/04 06:36:45;;;;;;;6.67;4.37;;;3.20;63.30;;;;;;4991197;28;20022;-80
2021/12/04 06:39:11;;;;;;;8.90;3.97;;;3.20;63.40;;;;;;4982689;28;20070;-80
2021/12/04 06:41:36;;;;;;;7.00;4.00;;;3.20;63.40;;;;;;4986069;28;20030;-80
2021/12/04 06:44:03;;;;;;;7.17;4.43;;;3.30;63.50;;;;;;4985042;28;20031;-80
2021/12/04 06:46:30;;;;;;;8.00;4.90;;;3.30;63.50;;;;;;4985231;28;20252;-80
2021/12/04 06:51:31;;;;;;;8.80;4.77;;;3.30;63.70;;;;;;4980112;28;20018;-80
2021/12/04 06:54:07;;;;;;;12.03;5.03;;;3.30;63.80;;;;;;4968338;28;20541;-80
2021/12/04 06:56:39;;;;;;;8.80;4.47;;;3.30;64.00;;;;;;4965234;28;20028;-80
2021/12/04 06:59:12;;;;;;;9.13;5.10;;;3.30;64.00;;;;;;4973677;28;20030;-80
2021/12/04 07:01:39;;;;;;;8.35;5.93;;;3.30;64.00;;;;;;4976295;28;20309;-80
2021/12/04 07:04:05;;;;;;;24.60;17.23;;;3.30;63.90;;;;;;4962749;28;20038;-80
2021/12/04 07:06:32;;;;;;;12.93;7.30;;;3.30;64.10;;;;;;4976914;28;20050;-80
2021/12/04 07:08:58;;;;;;;9.80;6.17;;;3.30;64.20;;;;;;4968312;28;20031;-80
2021/12/04 07:11:25;;;;;;;9.30;5.00;;;3.20;64.10;;;;;;4964810;28;20481;-80
2021/12/04 07:13:50;;;;;;;9.77;5.67;;;3.30;64.30;;;;;;4996253;28;20026;-80
2021/12/04 07:16:18;;;;;;;9.37;5.73;;;3.30;64.30;;;;;;4977475;28;20509;-80
2021/12/04 07:18:44;;;;;;;10.80;6.17;;;3.30;64.40;;;;;;4994750;28;20050;-80
2021/12/04 07:21:10;;;;;;;11.83;7.17;;;3.30;64.40;;;;;;4973861;28;20070;-80
2021/12/04 07:23:36;;;;;;;12.77;7.30;;;3.30;64.50;;;;;;4978679;28;20554;-80
2021/12/04 07:26:02;;;;;;;10.57;5.87;;;3.30;64.50;;;;;;4987705;28;20026;-80
2021/12/04 07:28:28;;;;;;;8.53;5.63;;;3.30;64.70;;;;;;4968120;28;20556;-80
2021/12/04 07:30:54;;;;;;;12.33;5.43;;;3.30;64.60;;;;;;4971178;28;20832;-80
2021/12/04 07:33:20;;;;;;;8.97;5.17;;;3.40;64.60;;;;;;4980624;28;20027;-80
2021/12/04 07:35:46;;;;;;;10.93;6.70;;;3.40;64.60;;;;;;4968177;28;20105;-80
2021/12/04 07:38:13;;;;;;;11.50;5.93;;;3.40;64.60;;;;;;4983183;28;20446;-80
2021/12/04 07:40:42;;;;;;;11.93;6.77;;;3.40;64.60;;;;;;4964815;28;20042;-80
2021/12/04 07:43:08;;;;;;;8.67;6.17;;;3.40;64.70;;;;;;4966123;28;20027;-81
2021/12/04 07:45:34;;;;;;;17.57;6.60;;;3.40;64.60;;;;;;4962811;28;20038;-80
2021/12/04 07:48:00;;;;;;;14.83;8.43;;;3.40;64.60;;;;;;4961646;28;20081;-80
2021/12/04 07:50:26;;;;;;;19.80;8.67;;;3.40;64.70;;;;;;4982604;28;20065;-80
2021/12/04 07:52:51;;;;;;;16.03;8.63;;;3.40;64.70;;;;;;4972244;28;20022;-80
2021/12/04 07:55:17;;;;;;;25.60;13.03;;;3.40;64.80;;;;;;4969565;28;20491;-80
2021/12/04 07:57:43;;;;;;;22.27;11.93;;;3.50;64.80;;;;;;4963545;28;20410;-80
2021/12/04 08:00:13;;;;;;;25.53;13.33;;;3.60;64.80;;;;;;4987830;28;20498;-81
2021/12/04 08:02:40;;;;;;;38.47;17.37;;;3.60;64.80;;;;;;4964869;28;20475;-80
2021/12/04 08:05:07;;;;;;;56.83;23.83;;;3.70;64.80;;;;;;4984037;28;20529;-80
2021/12/04 08:07:33;;;;;;;32.03;16.53;;;3.70;64.50;;;;;;4961756;28;20026;-80
2021/12/04 08:09:59;;;;;;;34.63;15.43;;;3.80;64.80;;;;;;4969057;28;20474;-80
2021/12/04 08:12:25;;;;;;;35.07;14.97;;;3.80;64.70;;;;;;4965714;28;20038;-80
2021/12/04 08:14:53;;;;;;;31.73;15.37;;;3.90;64.40;;;;;;4973462;28;20541;-80
2021/12/04 08:17:19;;;;;;;17.10;7.50;;;4.00;64.30;;;;;;4982506;28;20027;-80
2021/12/04 08:19:45;;;;;;;15.10;6.07;;;4.00;63.90;;;;;;4985191;28;20486;-80
2021/12/04 08:22:11;;;;;;;8.87;3.40;;;4.20;63.60;;;;;;4991865;28;20119;-80
2021/12/04 08:24:37;;;;;;;11.17;2.83;;;4.20;62.90;;;;;;4984342;28;20038;-80
2021/12/04 08:27:03;;;;;;;4.73;1.97;;;4.30;62.90;;;;;;4964790;28;20466;-80
2021/12/04 08:29:30;;;;;;;5.20;2.20;;;4.30;62.40;;;;;;4969297;28;20044;-80
2021/12/04 08:31:56;;;;;;;6.00;3.00;;;4.30;61.80;;;;;;4977015;28;20042;-80
2021/12/04 08:34:23;;;;;;;10.17;3.27;;;4.30;61.90;;;;;;4979352;28;20030;-80
2021/12/04 08:36:51;;;;;;;5.67;1.73;;;4.30;61.60;;;;;;4991534;28;20108;-80
2021/12/04 08:39:18;;;;;;;3.40;2.00;;;4.30;61.70;;;;;;4964865;28;20078;-80
2021/12/04 08:41:44;;;;;;;5.20;2.20;;;4.40;61.80;;;;;;4962101;28;20042;-80
2021/12/04 08:44:09;;;;;;;6.30;3.70;;;4.50;61.60;;;;;;4991341;28;20030;-80
2021/12/04 08:46:37;;;;;;;7.27;2.73;;;4.70;61.60;;;;;;4986745;28;20088;-80
2021/12/04 08:49:05;;;;;;;5.43;2.23;;;4.80;61.30;;;;;;4990383;28;20117;-80
2021/12/04 08:51:31;;;;;;;7.83;3.33;;;4.80;60.50;;;;;;4987006;28;20457;-81
2021/12/04 08:53:57;;;;;;;3.80;1.83;;;4.80;61.00;;;;;;4980905;28;20398;-80
2021/12/04 08:56:23;;;;;;;16.97;7.90;;;5.10;61.00;;;;;;4981702;28;20105;-80
2021/12/04 08:58:50;;;;;;;7.33;3.90;;;5.10;60.40;;;;;;4987647;28;20053;-80
2021/12/04 09:01:24;;;;;;;4.40;2.10;;;4.90;60.30;;;;;;4982533;28;20034;-80
2021/12/04 09:03:56;;;;;;;2.60;1.57;;;4.80;60.70;;;;;;4964297;28;20060;-81
2021/12/04 09:06:22;;;;;;;4.10;2.03;;;4.70;61.20;;;;;;4960437;28;20544;-80
2021/12/04 09:08:48;;;;;;;5.60;2.20;;;4.70;61.50;;;;;;4981115;28;20030;-80
2021/12/04 09:11:28;;;;;;;6.93;1.40;;;4.70;61.40;;;;;;4960134;28;20496;-80
2021/12/04 09:13:55;;;;;;;2.57;1.10;;;4.70;61.40;;;;;;4981105;28;20047;-80
2021/12/04 09:16:22;;;;;;;3.80;1.27;;;4.60;61.60;;;;;;4963661;28;20387;-80
2021/12/04 09:18:48;;;;;;;3.40;1.60;;;4.70;61.90;;;;;;4981064;28;20648;-80
2021/12/04 09:21:14;;;;;;;4.13;2.00;;;4.80;62.10;;;;;;4964300;28;20355;-80
2021/12/04 09:23:45;;;;;;;5.10;1.57;;;4.80;62.10;;;;;;4988560;28;20041;-80
2021/12/04 09:26:24;;;;;;;4.83;2.10;;;4.80;62.30;;;;;;4961223;28;20065;-80
2021/12/04 09:28:58;;;;;;;5.90;2.03;;;4.80;62.30;;;;;;4959930;28;20046;-80
2021/12/04 09:37:00;;;;;;;5.50;2.57;;;4.90;62.70;;;;;;4981309;28;20031;-80
2021/12/04 10:32:25;;;;;;;7.70;4.27;;;6.00;62.10;;;;;;4979189;28;20049;-81
2021/12/04 10:34:52;;;;;;;7.32;3.05;;;6.30;62.90;;;;;;4971015;28;20798;-81
2021/12/04 10:37:24;;;;;;;10.63;5.27;;;6.30;62.60;;;;;;4988210;28;20482;-80
2021/12/04 10:39:52;;;;;;;36.27;13.90;;;6.20;62.80;;;;;;4964361;28;20059;-81
2021/12/04 10:42:23;;;;;;;37.50;15.30;;;6.00;63.30;;;;;;4962790;28;20026;-80
2021/12/04 10:44:55;;;;;;;38.47;19.23;;;6.10;64.80;;;;;;4985569;28;20034;-81
2021/12/04 10:47:24;;;;;;;15.53;9.60;;;6.40;64.60;;;;;;4976593;28;20081;-80
2021/12/04 10:55:53;;;;;;;10.03;4.90;;;6.20;65.30;;;;;;4985470;28;20289;-81
2021/12/04 11:04:10;;;;;;;11.43;6.90;;;6.50;64.70;;;;;;4986322;28;20038;-81
2021/12/04 11:21:15;;;;;;;10.00;5.13;;;6.20;66.10;;;;;;4979542;28;20034;-81
2021/12/04 11:43:01;;;;;;;8.37;5.83;;;6.20;67.50;;;;;;4977275;28;20022;-81
2021/12/04 11:45:50;;;;;;;15.40;8.83;;;6.10;67.10;;;;;;4965389;28;20030;-81
2021/12/04 11:48:26;;;;;;;27.40;13.87;;;5.90;67.40;;;;;;4965886;28;20026;-81
2021/12/04 11:50:52;;;;;;;18.17;10.03;;;5.90;67.70;;;;;;4961569;28;20026;-81
2021/12/04 11:53:20;;;;;;;13.90;8.60;;;5.90;67.90;;;;;;4966539;28;20110;-81
2021/12/04 11:55:49;;;;;;;18.57;9.60;;;5.90;68.00;;;;;;4965482;28;20486;-81
2021/12/04 11:58:27;;;;;;;10.50;5.87;;;5.80;68.00;;;;;;4977281;28;20410;-81
2021/12/04 12:01:01;;;;;;;13.63;6.83;;;5.80;68.30;;;;;;4957920;28;20037;-81
2021/12/04 12:03:29;;;;;;;12.47;7.53;;;5.90;68.50;;;;;;4972571;28;20505;-81
2021/12/04 12:06:04;;;;;;;14.87;7.33;;;6.00;68.80;;;;;;4959505;28;20490;-81
2021/12/04 12:08:34;;;;;;;15.77;7.73;;;6.20;68.40;;;;;;4983353;28;20133;-81
2021/12/04 12:11:04;;;;;;;46.33;26.13;;;6.20;68.40;;;;;;4961387;28;20030;-80
2021/12/04 12:13:36;;;;;;;48.77;22.73;;;6.40;68.00;;;;;;4989466;28;20482;-81
2021/12/04 12:16:10;;;;;;;13.23;5.27;;;6.40;67.50;;;;;;4991163;28;20454;-81
2021/12/04 12:18:52;;;;;;;8.77;5.27;;;6.50;67.50;;;;;;4990001;28;20022;-81
2021/12/04 12:21:23;;;;;;;14.50;8.07;;;6.40;67.30;;;;;;4981402;28;20390;-80
2021/12/04 12:36:20;;;;;;;13.30;8.37;;;6.10;68.50;;;;;;4959312;28;20027;-80
2021/12/04 12:38:53;;;;;;;19.33;11.90;;;6.20;68.50;;;;;;4979927;28;20031;-81
2021/12/04 12:41:27;;;;;;;10.23;7.10;;;6.30;68.50;;;;;;4965011;28;20030;-80
2021/12/04 12:44:06;;;;;;;9.93;5.47;;;6.30;68.50;;;;;;4958633;28;20362;-81
2021/12/04 12:47:04;;;;;;;11.60;7.70;;;6.30;68.60;;;;;;4987558;28;20499;-81
2021/12/04 12:49:44;;;;;;;9.57;7.27;;;6.40;68.60;;;;;;4959133;28;20081;-81
2021/12/04 12:52:13;;;;;;;10.07;6.80;;;6.40;68.50;;;;;;4983418;28;20590;-81
2021/12/04 12:54:49;;;;;;;19.53;10.83;;;6.40;68.50;;;;;;4966891;28;20038;-81
2021/12/04 12:57:30;;;;;;;20.53;12.63;;;6.40;68.70;;;;;;4976634;28;20062;-81
2021/12/04 13:11:47;;;;;;;15.93;7.43;;;6.70;68.50;;;;;;4981404;28;20496;-81
2021/12/04 13:14:49;;;;;;;12.43;7.27;;;6.80;68.70;;;;;;4963381;28;20179;-81
2021/12/04 13:17:22;;;;;;;13.80;8.60;;;6.90;68.50;;;;;;4918152;28;20508;-81
2021/12/04 13:19:53;;;;;;;12.77;7.70;;;6.90;68.50;;;;;;4958475;28;20502;-81
2021/12/04 13:22:25;;;;;;;16.87;8.73;;;6.90;68.40;;;;;;4979390;28;21437;-81
2021/12/04 13:24:53;;;;;;;12.20;8.15;;;6.90;68.40;;;;;;4982738;28;20088;-81
2021/12/04 13:29:49;;;;;;;12.53;7.20;;;6.90;68.30;;;;;;4979263;28;20045;-81
2021/12/04 13:32:25;;;;;;;14.70;8.47;;;6.90;68.40;;;;;;4977481;28;20037;-81
2021/12/04 13:34:51;;;;;;;11.30;7.50;;;6.80;68.40;;;;;;4984782;28;20486;-80
2021/12/04 13:37:26;;;;;;;16.03;7.47;;;6.80;68.30;;;;;;4960435;28;20034;-81
2021/12/04 13:39:57;;;;;;;13.03;8.13;;;6.70;68.30;;;;;;4956802;28;20468;-80
2021/12/04 13:42:24;;;;;;;17.43;9.97;;;6.60;68.30;;;;;;4965467;28;20027;-81
2021/12/04 13:44:56;;;;;;;33.20;15.60;;;6.60;68.50;;;;;;4961913;28;20037;-82
2021/12/04 13:47:22;;;;;;;54.78;25.73;;;6.60;68.60;;;;;;4966226;28;20034;-82
2021/12/04 13:49:55;;;;;;;63.07;28.70;;;6.50;68.60;;;;;;4965186;28;20049;-82
2021/12/04 13:52:23;;;;;;;25.77;16.27;;;6.50;69.20;;;;;;4985041;28;20035;-82
2021/12/04 13:54:54;;;;;;;18.57;10.73;;;6.50;68.60;;;;;;4958492;28;20043;-82
2021/12/04 13:57:19;;;;;;;13.40;6.97;;;6.50;68.70;;;;;;4955090;28;20050;-83
2021/12/04 13:59:45;;;;;;;18.53;7.80;;;6.50;68.70;;;;;;4983163;28;20061;-82
2021/12/04 14:02:23;;;;;;;13.97;7.53;;;6.50;68.80;;;;;;4961932;28;20031;-82
2021/12/04 14:05:05;;;;;;;14.77;7.20;;;6.50;68.70;;;;;;4961060;28;20038;-82
2021/12/04 14:07:33;;;;;;;12.83;7.67;;;6.50;68.60;;;;;;4987055;28;21049;-81
2021/12/04 14:10:10;;;;;;;12.87;7.60;;;6.40;68.60;;;;;;4963582;28;20038;-82
2021/12/04 14:12:36;;;;;;;13.03;6.83;;;6.40;68.60;;;;;;4963514;28;21336;-82
2021/12/04 14:15:13;;;;;;;12.57;7.20;;;6.40;68.60;;;;;;4970535;28;20085;-82
2021/12/04 14:17:39;;;;;;;13.50;7.37;;;6.30;68.80;;;;;;4961575;28;20031;-81
2021/12/04 14:20:06;;;;;;;13.73;6.60;;;6.40;68.90;;;;;;4966577;28;20031;-81
2021/12/04 14:22:33;;;;;;;10.03;6.23;;;6.40;68.80;;;;;;4975475;28;20084;-81
2021/12/04 14:25:02;;;;;;;9.93;6.30;;;6.40;68.70;;;;;;4975036;28;20034;-81
2021/12/04 14:27:28;;;;;;;8.73;6.03;;;6.40;68.70;;;;;;4967857;28;20030;-81
2021/12/04 14:30:10;;;;;;;10.83;6.47;;;6.40;68.70;;;;;;4966658;28;20451;-81
2021/12/04 14:32:45;;;;;;;16.27;6.70;;;6.40;68.60;;;;;;4968779;28;20027;-81
2021/12/04 14:35:16;;;;;;;13.47;6.60;;;6.30;68.60;;;;;;4987931;28;20030;-81
2021/12/04 14:37:48;;;;;;;14.13;6.73;;;6.30;68.60;;;;;;4968494;28;20717;-81
2021/12/04 14:40:22;;;;;;;11.77;6.85;;;6.40;68.70;;;;;;4980609;28;20030;-81
2021/12/04 14:42:49;;;;;;;13.27;8.70;;;6.30;68.70;;;;;;4977571;28;20157;-82
2021/12/04 14:45:36;;;;;;;14.60;10.07;;;6.40;68.80;;;;;;4960847;28;20037;-81
2021/12/04 14:48:09;;;;;;;15.80;9.27;;;6.40;68.80;;;;;;4957313;28;20118;-81
2021/12/04 14:50:42;;;;;;;15.20;9.57;;;6.40;68.80;;;;;;4967442;28;20490;-82
2021/12/04 14:53:12;;;;;;;11.90;8.03;;;6.30;68.70;;;;;;4971429;28;20033;-82
2021/12/04 14:55:43;;;;;;;13.07;7.87;;;6.30;68.90;;;;;;4982761;28;20494;-82
2021/12/04 14:58:16;;;;;;;16.40;8.87;;;6.30;68.90;;;;;;4963448;28;20466;-82
2021/12/04 15:00:46;;;;;;;;;;;6.30;68.90;;;;;;4971097;28;20457;-82
2021/12/04 15:03:16;;;;;;;14.30;7.87;;;6.20;69.00;;;;;;4987243;28;19909;-82
2021/12/04 15:05:48;;;;;;;17.77;9.03;;;6.20;68.80;;;;;;4990523;28;20037;-82
2021/12/04 15:08:21;;;;;;;15.40;9.07;;;6.20;69.00;;;;;;4970109;28;20026;-81
2021/12/04 15:11:06;;;;;;;14.82;8.82;;;6.20;69.20;;;;;;4962070;28;20066;-81
2021/12/04 15:13:36;;;;;;;17.10;9.40;;;6.20;69.20;;;;;;4981075;28;20026;-82
2021/12/04 15:16:06;;;;;;;15.60;10.50;;;6.20;69.20;;;;;;4968408;28;20022;-82
2021/12/04 15:18:39;;;;;;;18.90;10.93;;;6.20;69.20;;;;;;4980912;28;20478;-82
2021/12/04 15:21:14;;;;;;;15.65;10.18;;;6.20;69.20;;;;;;4957317;28;20027;-81
2021/12/04 15:23:40;;;;;;;21.13;11.67;;;6.20;69.40;;;;;;4967211;28;20049;-82
2021/12/04 15:26:19;;;;;;;16.20;9.90;;;6.20;69.20;;;;;;4979154;28;20394;-82
2021/12/04 15:28:49;;;;;;;18.77;9.97;;;6.20;69.30;;;;;;4973707;28;20030;-82
2021/12/04 15:31:17;;;;;;;15.57;10.43;;;6.20;69.30;;;;;;4967779;28;20033;-82
2021/12/04 15:33:49;;;;;;;13.67;9.90;;;6.20;69.30;;;;;;4964812;28;20023;-81
2021/12/04 15:36:29;;;;;;;18.45;10.77;;;6.20;69.40;;;;;;4982101;28;20015;-81
2021/12/04 15:38:57;;;;;;;16.33;10.53;;;6.20;69.30;;;;;;4975085;28;20978;-82
2021/12/04 15:41:40;;;;;;;22.43;10.43;;;6.10;69.20;;;;;;4982983;28;20042;-82
2021/12/04 15:44:41;;;;;;;16.83;10.43;;;6.10;69.50;;;;;;4967708;28;20042;-82
2021/12/04 15:47:20;;;;;;;17.83;10.13;;;6.10;69.40;;;;;;4979729;28;20027;-81
2021/12/04 15:50:15;;;;;;;21.07;10.93;;;6.10;69.30;;;;;;4980667;28;20031;-82
2021/12/04 15:55:12;;;;;;;22.13;13.80;;;6.10;69.50;;;;;;4977798;28;20050;-82
2021/12/04 15:57:39;;;;;;;21.23;13.30;;;6.10;69.50;;;;;;4963843;28;20037;-82
2021/12/04 16:00:11;;;;;;;19.83;12.70;;;6.00;69.70;;;;;;4979737;28;20093;-81
2021/12/04 16:02:44;;;;;;;27.30;15.10;;;6.00;69.70;;;;;;4981893;28;20034;-81
2021/12/04 16:05:19;;;;;;;22.58;14.32;;;6.10;69.70;;;;;;4983895;28;20498;-82
2021/12/04 16:07:49;;;;;;;18.83;12.33;;;6.00;69.70;;;;;;4975705;28;20030;-82
2021/12/04 16:10:19;;;;;;;16.80;10.90;;;6.10;69.80;;;;;;4982648;28;20504;-82
2021/12/04 16:12:50;;;;;;;18.23;10.07;;;6.10;69.80;;;;;;4962508;28;20033;-81
2021/12/04 16:15:19;;;;;;;17.40;10.73;;;6.00;69.90;;;;;;4975388;28;20117;-82
2021/12/04 16:17:45;;;;;;;19.90;11.90;;;6.00;69.80;;;;;;4978428;28;20046;-82
2021/12/04 16:20:13;;;;;;;25.50;15.53;;;6.00;70.00;;;;;;4962448;28;20530;-81